Time;durP1;ratioP1;P1;durP2;ratioP2;P2;SDS_P1;SDS_P2;PMS_P1;PMS_P2;Temp;Humidity;BMP_temperature;BMP_pressure;BME280_temperature;BME280_humidity;BME280_pressure;Samples;Min_cycle;Max_cycle;Signal;HPM_P1;HPM_P2
2024/01/16 00:01:14;;;;;;;1.88;1.02;;;;;;;;;;5020585;28;20026;-78
2024/01/16 00:03:39;;;;;;;1.52;0.63;;;;;;;;;;5020437;28;20396;-78
2024/01/16 00:06:06;;;;;;;1.40;0.80;;;;;;;;;;5019648;28;20026;-78
2024/01/16 00:08:31;;;;;;;1.15;0.73;;;;;;;;;;5020884;28;20026;-77
2024/01/16 00:10:57;;;;;;;3.78;1.00;;;;;;;;;;5027744;28;20060;-77
2024/01/16 00:13:22;;;;;;;1.33;0.70;;;;;;;;;;5032954;28;20022;-77
2024/01/16 00:15:49;;;;;;;1.88;0.77;;;;;;;;;;5030791;28;20030;-78
2024/01/16 00:18:14;;;;;;;1.83;0.82;;;;;;;;;;5021024;28;20033;-77
2024/01/16 00:20:40;;;;;;;7.75;0.90;;;;;;;;;;5020058;28;20040;-78
2024/01/16 00:23:05;;;;;;;5.47;0.82;;;;;;;;;;5022234;28;20030;-79
2024/01/16 00:25:30;;;;;;;5.78;1.13;;;;;;;;;;5022678;28;20038;-78
2024/01/16 00:27:55;;;;;;;6.07;1.10;;;;;;;;;;5007412;28;20029;-78
2024/01/16 00:30:20;;;;;;;1.15;0.90;;;;;;;;;;5007465;28;20033;-78
2024/01/16 00:32:46;;;;;;;10.80;1.42;;;;;;;;;;5021894;28;20022;-78
2024/01/16 00:35:12;;;;;;;2.60;1.02;;;;;;;;;;5024146;28;20045;-78
2024/01/16 00:37:37;;;;;;;3.47;1.00;;;;;;;;;;5023548;28;20028;-79
2024/01/16 00:40:04;;;;;;;3.30;1.17;;;;;;;;;;5023066;28;20057;-78
2024/01/16 00:42:30;;;;;;;5.40;1.17;;;;;;;;;;5025811;28;20034;-78
2024/01/16 00:44:55;;;;;;;2.65;0.95;;;;;;;;;;5009520;28;20065;-79
2024/01/16 00:47:20;;;;;;;2.60;0.95;;;;;;;;;;5011185;28;20028;-80
2024/01/16 00:49:46;;;;;;;5.57;1.23;;;;;;;;;;5026010;28;20028;-80
2024/01/16 00:52:11;;;;;;;4.28;1.23;;;;;;;;;;5024850;28;20446;-80
2024/01/16 00:54:36;;;;;;;3.97;1.10;;;;;;;;;;5009537;28;20021;-80
2024/01/16 00:57:01;;;;;;;1.55;1.10;;;;;;;;;;5010351;28;20025;-79
2024/01/16 00:59:26;;;;;;;8.13;1.55;;;;;;;;;;5027810;28;20018;-80
2024/01/16 01:01:52;;;;;;;4.30;1.63;;;;;;;;;;5009800;28;20022;-79
2024/01/16 01:04:17;;;;;;;5.55;1.20;;;;;;;;;;5024808;28;20033;-79
2024/01/16 01:06:42;;;;;;;3.92;2.05;;;;;;;;;;5007267;28;20519;-78
2024/01/16 01:09:07;;;;;;;3.72;1.25;;;;;;;;;;5023636;28;20049;-78
2024/01/16 01:11:33;;;;;;;3.15;1.73;;;;;;;;;;5023671;28;20014;-78
2024/01/16 01:13:59;;;;;;;1.17;0.93;;;;;;;;;;5024547;28;20030;-78
2024/01/16 01:16:24;;;;;;;3.95;1.30;;;;;;;;;;5024493;28;20022;-78
2024/01/16 01:18:49;;;;;;;4.03;1.40;;;;;;;;;;5025134;28;20076;-79
2024/01/16 01:21:14;;;;;;;3.10;1.25;;;;;;;;;;5028641;28;20073;-79
2024/01/16 01:23:40;;;;;;;1.33;0.90;;;;;;;;;;5028069;28;20030;-80
2024/01/16 01:26:05;;;;;;;2.13;0.75;;;;;;;;;;5025871;28;20084;-78
2024/01/16 01:28:30;;;;;;;4.68;1.50;;;;;;;;;;5007912;28;20030;-79
2024/01/16 01:30:55;;;;;;;2.22;0.98;;;;;;;;;;5012172;28;20049;-79
2024/01/16 01:33:21;;;;;;;4.82;1.40;;;;;;;;;;5029777;28;20037;-79
2024/01/16 01:35:46;;;;;;;5.35;1.30;;;;;;;;;;5031994;28;20396;-79
2024/01/16 01:38:11;;;;;;;2.10;1.15;;;;;;;;;;5031595;28;20028;-78
2024/01/16 01:40:36;;;;;;;8.75;1.40;;;;;;;;;;5028249;28;20034;-79
2024/01/16 01:43:24;;;;;;;2.05;1.02;;;;;;;;;;5008768;28;20033;-76
2024/01/16 01:46:21;;;;;;;6.05;1.48;;;;;;;;;;5008826;28;20037;-78
2024/01/16 01:48:47;;;;;;;2.25;1.10;;;;;;;;;;5025320;28;20048;-78
2024/01/16 01:51:14;;;;;;;2.55;1.15;;;;;;;;;;5026092;28;20022;-79
2024/01/16 01:53:42;;;;;;;5.10;1.27;;;;;;;;;;5025557;28;20085;-78
2024/01/16 01:56:10;;;;;;;2.50;1.17;;;;;;;;;;5027451;28;20449;-78
2024/01/16 01:58:37;;;;;;;4.53;1.48;;;;;;;;;;5012391;28;20052;-79
2024/01/16 02:01:04;;;;;;;4.20;1.40;;;;;;;;;;5009259;28;20025;-79
2024/01/16 02:03:35;;;;;;;4.15;1.48;;;;;;;;;;5007434;28;20033;-78
2024/01/16 02:06:00;;;;;;;3.05;1.27;;;;;;;;;;5008727;28;20045;-78
2024/01/16 02:08:26;;;;;;;2.88;1.35;;;;;;;;;;5025413;28;20033;-78
2024/01/16 02:10:51;;;;;;;1.38;1.17;;;;;;;;;;5008497;28;20025;-79
2024/01/16 02:13:20;;;;;;;2.63;1.42;;;;;;;;;;5026252;28;20037;-78
2024/01/16 02:15:46;;;;;;;3.80;0.85;;;;;;;;;;5008635;28;20037;-78
2024/01/16 02:18:11;;;;;;;2.88;1.30;;;;;;;;;;5025001;28;20432;-78
2024/01/16 02:20:36;;;;;;;1.50;0.83;;;;;;;;;;5024929;28;20029;-77
2024/01/16 02:23:03;;;;;;;2.00;1.08;;;;;;;;;;5007530;28;20251;-78
2024/01/16 02:25:30;;;;;;;3.42;1.45;;;;;;;;;;5022394;28;20087;-78
2024/01/16 02:27:55;;;;;;;4.82;1.10;;;;;;;;;;5023071;28;20030;-78
2024/01/16 02:30:20;;;;;;;7.15;1.25;;;;;;;;;;5023106;28;20109;-78
2024/01/16 02:32:45;;;;;;;3.40;1.00;;;;;;;;;;5022865;28;20034;-78
2024/01/16 02:35:10;;;;;;;7.27;1.50;;;;;;;;;;5030689;28;20033;-80
2024/01/16 02:37:36;;;;;;;3.90;1.40;;;;;;;;;;5032694;28;20271;-80
2024/01/16 02:40:05;;;;;;;3.88;1.00;;;;;;;;;;5038299;28;20267;-78
2024/01/16 02:42:34;;;;;;;1.45;0.77;;;;;;;;;;5040177;28;20014;-78
2024/01/16 02:44:59;;;;;;;4.38;1.02;;;;;;;;;;5040055;28;20021;-78
2024/01/16 02:47:24;;;;;;;2.60;0.90;;;;;;;;;;5038970;28;20034;-78
2024/01/16 02:49:49;;;;;;;4.18;1.00;;;;;;;;;;5039620;28;20037;-79
2024/01/16 02:52:15;;;;;;;1.58;1.00;;;;;;;;;;5022680;28;20017;-80
2024/01/16 02:54:41;;;;;;;4.32;1.20;;;;;;;;;;5039344;28;20085;-77
2024/01/16 02:57:06;;;;;;;3.45;1.20;;;;;;;;;;5039107;28;20033;-77
2024/01/16 02:59:31;;;;;;;1.75;0.93;;;;;;;;;;5038580;28;20053;-78
2024/01/16 03:01:56;;;;;;;3.85;0.95;;;;;;;;;;5022290;28;20030;-79
2024/01/16 03:04:22;;;;;;;2.38;1.10;;;;;;;;;;5038736;28;20489;-78
2024/01/16 03:06:47;;;;;;;5.28;0.88;;;;;;;;;;5038573;28;20061;-78
2024/01/16 03:09:12;;;;;;;3.15;1.30;;;;;;;;;;5038960;28;20078;-76
2024/01/16 03:11:37;;;;;;;5.03;1.53;;;;;;;;;;5039004;28;20092;-77
2024/01/16 03:14:03;;;;;;;1.98;1.13;;;;;;;;;;5038077;28;20255;-77
2024/01/16 03:16:30;;;;;;;1.55;1.00;;;;;;;;;;5038285;28;20117;-78
2024/01/16 03:18:55;;;;;;;3.47;1.15;;;;;;;;;;5038281;28;20049;-77
2024/01/16 03:21:20;;;;;;;3.63;0.80;;;;;;;;;;5020469;28;20057;-77
2024/01/16 03:23:45;;;;;;;4.35;1.05;;;;;;;;;;5037725;28;20033;-77
2024/01/16 03:26:14;;;;;;;4.63;1.00;;;;;;;;;;5037836;28;20037;-77
2024/01/16 03:28:40;;;;;;;2.83;1.10;;;;;;;;;;5035409;28;20115;-78
2024/01/16 03:31:05;;;;;;;2.30;1.00;;;;;;;;;;5034342;28;20489;-78
2024/01/16 03:33:30;;;;;;;1.63;0.90;;;;;;;;;;5037410;28;20117;-77
2024/01/16 03:35:55;;;;;;;2.80;0.88;;;;;;;;;;5038021;28;20072;-78
2024/01/16 03:38:20;;;;;;;2.47;1.00;;;;;;;;;;5037496;28;20030;-78
2024/01/16 03:40:46;;;;;;;2.72;0.90;;;;;;;;;;5031066;28;20029;-79
2024/01/16 03:43:11;;;;;;;2.60;1.00;;;;;;;;;;5030376;28;20078;-80
2024/01/16 03:45:36;;;;;;;2.83;1.00;;;;;;;;;;5035072;28;20037;-80
2024/01/16 03:48:03;;;;;;;2.60;0.90;;;;;;;;;;5019891;28;20247;-78
2024/01/16 03:50:28;;;;;;;3.05;1.00;;;;;;;;;;5038086;28;20026;-78
2024/01/16 03:52:53;;;;;;;3.60;1.08;;;;;;;;;;5037941;28;20030;-78
2024/01/16 03:55:18;;;;;;;1.98;1.17;;;;;;;;;;5022007;28;20057;-78
2024/01/16 03:57:44;;;;;;;2.78;1.00;;;;;;;;;;5019985;28;20030;-78
2024/01/16 04:00:12;;;;;;;4.97;1.10;;;;;;;;;;5019886;28;20026;-78
2024/01/16 04:02:38;;;;;;;2.38;1.05;;;;;;;;;;5019605;28;20094;-77
2024/01/16 04:05:04;;;;;;;3.22;1.00;;;;;;;;;;5037082;28;20030;-78
2024/01/16 04:07:29;;;;;;;2.42;1.10;;;;;;;;;;5037364;28;20088;-78
2024/01/16 04:09:54;;;;;;;4.32;0.95;;;;;;;;;;5029799;28;20022;-78
2024/01/16 04:12:19;;;;;;;2.53;1.02;;;;;;;;;;5033725;28;20006;-78
2024/01/16 04:14:45;;;;;;;2.53;1.10;;;;;;;;;;5033903;28;20049;-77
2024/01/16 04:17:10;;;;;;;4.28;1.20;;;;;;;;;;5017087;28;20029;-78
2024/01/16 04:19:35;;;;;;;6.20;1.17;;;;;;;;;;5012846;28;20116;-78
2024/01/16 04:22:01;;;;;;;2.20;0.80;;;;;;;;;;5008337;28;20100;-79
2024/01/16 04:24:27;;;;;;;2.78;0.95;;;;;;;;;;5027943;28;20030;-78
2024/01/16 04:26:52;;;;;;;1.45;0.77;;;;;;;;;;5025450;28;20068;-78
2024/01/16 04:29:18;;;;;;;3.55;1.33;;;;;;;;;;5022825;28;20030;-78
2024/01/16 04:31:43;;;;;;;1.33;1.00;;;;;;;;;;5006825;28;20535;-78
2024/01/16 04:34:08;;;;;;;4.60;1.00;;;;;;;;;;5025517;28;20570;-78
2024/01/16 04:36:33;;;;;;;3.58;1.30;;;;;;;;;;5001862;28;20805;-78
2024/01/16 04:38:58;;;;;;;3.58;1.20;;;;;;;;;;5002790;28;20044;-77
2024/01/16 04:41:24;;;;;;;1.77;0.98;;;;;;;;;;5020038;28;20072;-78
2024/01/16 04:43:50;;;;;;;1.88;0.90;;;;;;;;;;5003963;28;20026;-78
2024/01/16 04:46:15;;;;;;;7.05;1.08;;;;;;;;;;5002790;28;20029;-79
2024/01/16 04:48:41;;;;;;;6.47;1.30;;;;;;;;;;5009166;28;20032;-78
2024/01/16 04:51:07;;;;;;;2.05;1.27;;;;;;;;;;5008763;28;20021;-78
2024/01/16 04:53:32;;;;;;;3.30;1.25;;;;;;;;;;5005530;28;20037;-77
2024/01/16 04:55:58;;;;;;;5.53;1.40;;;;;;;;;;5023349;28;20029;-78
2024/01/16 04:58:23;;;;;;;7.90;1.50;;;;;;;;;;5008241;28;20022;-79
2024/01/16 05:00:48;;;;;;;3.20;1.15;;;;;;;;;;5025567;28;20037;-78
2024/01/16 05:03:13;;;;;;;2.80;1.27;;;;;;;;;;5005815;28;20030;-78
2024/01/16 05:05:39;;;;;;;1.42;1.05;;;;;;;;;;5025796;28;20026;-78
2024/01/16 05:08:04;;;;;;;4.97;1.38;;;;;;;;;;5008648;28;20033;-80
2024/01/16 05:10:30;;;;;;;2.17;1.45;;;;;;;;;;5031298;28;20026;-79
2024/01/16 05:12:56;;;;;;;1.38;0.95;;;;;;;;;;5033448;28;20392;-79
2024/01/16 05:15:21;;;;;;;1.60;1.13;;;;;;;;;;5032238;28;20021;-78
2024/01/16 05:17:46;;;;;;;3.92;1.27;;;;;;;;;;5033580;28;20026;-79
2024/01/16 05:20:11;;;;;;;2.92;1.30;;;;;;;;;;5012725;28;20036;-79
2024/01/16 05:22:38;;;;;;;2.17;1.33;;;;;;;;;;5027582;28;20030;-77
2024/01/16 05:25:04;;;;;;;2.00;1.30;;;;;;;;;;5013392;28;20033;-78
2024/01/16 05:27:29;;;;;;;3.33;1.38;;;;;;;;;;5028870;28;20041;-79
2024/01/16 05:29:55;;;;;;;3.00;1.23;;;;;;;;;;5012264;28;20034;-78
2024/01/16 05:32:20;;;;;;;3.15;1.20;;;;;;;;;;5031150;28;20037;-78
2024/01/16 05:34:45;;;;;;;3.17;1.13;;;;;;;;;;5032069;28;20048;-78
2024/01/16 05:37:11;;;;;;;2.92;0.88;;;;;;;;;;5026035;28;20079;-78
2024/01/16 05:39:36;;;;;;;4.40;1.17;;;;;;;;;;5026580;28;20038;-77
2024/01/16 05:42:02;;;;;;;2.60;1.05;;;;;;;;;;5028348;28;20017;-79
2024/01/16 05:44:27;;;;;;;2.60;0.82;;;;;;;;;;5028132;28;20030;-78
2024/01/16 05:46:53;;;;;;;3.42;0.98;;;;;;;;;;5027676;28;20018;-78
2024/01/16 05:49:18;;;;;;;6.85;1.30;;;;;;;;;;5026901;28;20033;-78
2024/01/16 05:51:43;;;;;;;0.52;0.32;;;;;;;;;;5028802;28;20021;-79
2024/01/16 05:54:08;;;;;;;3.00;1.20;;;;;;;;;;5030774;28;20042;-78
2024/01/16 05:56:34;;;;;;;5.50;1.15;;;;;;;;;;5031978;28;20079;-78
2024/01/16 05:58:59;;;;;;;0.65;0.57;;;;;;;;;;5028170;28;20030;-77
2024/01/16 06:01:24;;;;;;;6.38;1.30;;;;;;;;;;5029295;28;20034;-78
2024/01/16 06:03:50;;;;;;;5.20;1.60;;;;;;;;;;5030277;28;20034;-78
2024/01/16 06:06:15;;;;;;;4.18;1.23;;;;;;;;;;5028322;28;20025;-79
2024/01/16 06:08:40;;;;;;;5.32;1.52;;;;;;;;;;5029443;28;20040;-78
2024/01/16 06:11:06;;;;;;;2.15;1.30;;;;;;;;;;5025400;28;20029;-78
2024/01/16 06:13:32;;;;;;;6.43;1.50;;;;;;;;;;5026869;28;20025;-77
2024/01/16 06:15:58;;;;;;;3.17;1.20;;;;;;;;;;5004180;28;20029;-77
2024/01/16 06:18:23;;;;;;;2.85;1.25;;;;;;;;;;5004560;28;20030;-77
2024/01/16 06:20:48;;;;;;;5.40;1.45;;;;;;;;;;5022465;28;20068;-77
2024/01/16 06:23:13;;;;;;;2.75;1.48;;;;;;;;;;5001030;28;20057;-77
2024/01/16 06:25:38;;;;;;;3.92;1.38;;;;;;;;;;5018850;28;20030;-77
2024/01/16 06:28:05;;;;;;;5.78;1.88;;;;;;;;;;5018700;28;20026;-77
2024/01/16 06:30:30;;;;;;;3.22;1.80;;;;;;;;;;5000732;28;20029;-77
2024/01/16 06:32:56;;;;;;;4.68;1.95;;;;;;;;;;5001543;28;20505;-78
2024/01/16 06:35:21;;;;;;;5.28;2.10;;;;;;;;;;5020168;28;20033;-77
2024/01/16 06:37:46;;;;;;;2.97;1.48;;;;;;;;;;5020854;28;20022;-78
2024/01/16 06:40:11;;;;;;;3.17;1.80;;;;;;;;;;5021682;28;20090;-77
2024/01/16 06:42:37;;;;;;;2.85;1.75;;;;;;;;;;5002822;28;20299;-77
2024/01/16 06:45:05;;;;;;;5.65;1.35;;;;;;;;;;5020574;28;20540;-78
2024/01/16 06:47:30;;;;;;;3.08;1.50;;;;;;;;;;5022843;28;20040;-78
2024/01/16 06:49:56;;;;;;;6.97;1.73;;;;;;;;;;5026317;28;20030;-77
2024/01/16 06:52:21;;;;;;;4.82;1.85;;;;;;;;;;5008064;28;20329;-78
2024/01/16 06:54:46;;;;;;;4.97;2.47;;;;;;;;;;5003593;28;20508;-78
2024/01/16 06:57:12;;;;;;;2.08;1.45;;;;;;;;;;5022292;28;20026;-78
2024/01/16 06:59:37;;;;;;;3.63;1.20;;;;;;;;;;5022131;28;20611;-78
2024/01/16 07:02:03;;;;;;;6.07;1.75;;;;;;;;;;5021303;28;20049;-78
2024/01/16 07:04:28;;;;;;;3.20;1.50;;;;;;;;;;5022341;28;20056;-78
2024/01/16 07:06:54;;;;;;;2.40;0.98;;;;;;;;;;5009340;28;20047;-80
2024/01/16 07:09:20;;;;;;;4.00;1.50;;;;;;;;;;5004858;28;20137;-77
2024/01/16 07:11:46;;;;;;;6.50;1.80;;;;;;;;;;5018047;28;20026;-78
2024/01/16 07:14:11;;;;;;;3.28;1.48;;;;;;;;;;5018718;28;20026;-77
2024/01/16 07:16:37;;;;;;;4.88;1.92;;;;;;;;;;5005193;28;20026;-79
2024/01/16 07:19:02;;;;;;;2.67;1.65;;;;;;;;;;5024171;28;20026;-77
2024/01/16 07:21:28;;;;;;;3.75;1.45;;;;;;;;;;5005031;28;20017;-78
2024/01/16 07:23:53;;;;;;;2.13;1.40;;;;;;;;;;5003053;28;20034;-79
2024/01/16 07:26:19;;;;;;;5.25;1.60;;;;;;;;;;5005738;28;20030;-78
2024/01/16 07:28:44;;;;;;;9.90;1.95;;;;;;;;;;5002808;28;20080;-77
2024/01/16 07:31:09;;;;;;;6.18;2.13;;;;;;;;;;5004769;28;20026;-79
2024/01/16 07:33:35;;;;;;;4.03;1.60;;;;;;;;;;5004757;28;20045;-79
2024/01/16 07:36:00;;;;;;;2.13;1.23;;;;;;;;;;5021586;28;20057;-77
2024/01/16 07:38:25;;;;;;;3.75;1.38;;;;;;;;;;5021377;28;20442;-78
2024/01/16 07:40:50;;;;;;;2.20;1.20;;;;;;;;;;5024568;28;20092;-78
2024/01/16 07:43:16;;;;;;;6.82;1.42;;;;;;;;;;5024464;28;20432;-77
2024/01/16 07:45:41;;;;;;;4.55;1.60;;;;;;;;;;5022224;28;20111;-77
2024/01/16 07:48:08;;;;;;;3.65;1.38;;;;;;;;;;5000137;28;20412;-77
2024/01/16 07:50:33;;;;;;;1.80;0.95;;;;;;;;;;5000744;28;20033;-78
2024/01/16 07:52:58;;;;;;;4.03;1.50;;;;;;;;;;5023819;28;20038;-78
2024/01/16 07:55:23;;;;;;;2.87;1.30;;;;;;;;;;5023151;28;20260;-77
2024/01/16 07:57:49;;;;;;;4.60;1.45;;;;;;;;;;5023136;28;20686;-78
2024/01/16 08:00:15;;;;;;;0.85;0.68;;;;;;;;;;5018789;28;20038;-77
2024/01/16 08:02:41;;;;;;;4.60;1.40;;;;;;;;;;5020025;28;20072;-77
2024/01/16 08:05:07;;;;;;;2.53;1.38;;;;;;;;;;5022170;28;20370;-78
2024/01/16 08:07:32;;;;;;;3.90;1.33;;;;;;;;;;5022953;28;20134;-78
2024/01/16 08:09:57;;;;;;;2.42;1.02;;;;;;;;;;5002594;28;20201;-77
2024/01/16 08:12:22;;;;;;;5.82;1.40;;;;;;;;;;4997873;28;20201;-77
2024/01/16 08:14:48;;;;;;;7.70;1.35;;;;;;;;;;5017900;28;20026;-78
2024/01/16 08:17:13;;;;;;;1.77;1.03;;;;;;;;;;5002005;28;20373;-78
2024/01/16 08:19:38;;;;;;;5.30;1.20;;;;;;;;;;5017300;28;20270;-77
2024/01/16 08:22:04;;;;;;;5.95;1.10;;;;;;;;;;5017064;28;20471;-78
2024/01/16 08:24:29;;;;;;;3.10;1.35;;;;;;;;;;5016604;28;20029;-78
2024/01/16 08:26:58;;;;;;;5.82;1.52;;;;;;;;;;4999499;28;20120;-77
2024/01/16 08:29:24;;;;;;;4.43;1.40;;;;;;;;;;5000313;28;20030;-78
2024/01/16 08:31:51;;;;;;;2.13;1.10;;;;;;;;;;5001119;28;20030;-75
2024/01/16 08:34:16;;;;;;;7.70;1.23;;;;;;;;;;5021279;28;20036;-78
2024/01/16 08:36:41;;;;;;;6.53;1.67;;;;;;;;;;5021024;28;20030;-77
2024/01/16 08:39:06;;;;;;;3.72;1.30;;;;;;;;;;4999226;28;20112;-77
2024/01/16 08:41:32;;;;;;;7.38;1.70;;;;;;;;;;5019242;28;20049;-78
2024/01/16 08:43:57;;;;;;;4.20;1.43;;;;;;;;;;5016270;28;20029;-77
2024/01/16 08:46:22;;;;;;;5.25;1.45;;;;;;;;;;5015553;28;20270;-77
2024/01/16 08:48:48;;;;;;;3.70;1.30;;;;;;;;;;5017150;28;20022;-78
2024/01/16 08:51:14;;;;;;;5.43;1.98;;;;;;;;;;5017747;28;20029;-78
2024/01/16 08:53:39;;;;;;;1.33;1.15;;;;;;;;;;5018096;28;20033;-78
2024/01/16 08:56:06;;;;;;;2.33;1.27;;;;;;;;;;5019064;28;20034;-78
2024/01/16 08:58:35;;;;;;;5.05;1.45;;;;;;;;;;5020276;28;20053;-77
2024/01/16 09:01:01;;;;;;;4.78;1.13;;;;;;;;;;5020377;28;20026;-78
2024/01/16 09:03:26;;;;;;;5.55;2.10;;;;;;;;;;5019607;28;20392;-78
2024/01/16 09:05:51;;;;;;;5.05;1.55;;;;;;;;;;5024559;28;20044;-78
2024/01/16 09:08:16;;;;;;;6.43;1.77;;;;;;;;;;5019609;28;20108;-78
2024/01/16 09:10:42;;;;;;;6.10;1.20;;;;;;;;;;5022052;28;20503;-78
2024/01/16 09:13:07;;;;;;;2.25;1.20;;;;;;;;;;5006832;28;20026;-78
2024/01/16 09:15:32;;;;;;;2.15;1.23;;;;;;;;;;5002918;28;20511;-78
2024/01/16 09:17:57;;;;;;;3.22;1.40;;;;;;;;;;5022570;28;20505;-78
2024/01/16 09:20:23;;;;;;;9.63;1.80;;;;;;;;;;5017765;28;20034;-78
2024/01/16 09:22:48;;;;;;;2.83;1.00;;;;;;;;;;4997631;28;20271;-77
2024/01/16 09:25:14;;;;;;;3.00;0.98;;;;;;;;;;5015232;28;20454;-78
2024/01/16 09:27:39;;;;;;;4.32;1.30;;;;;;;;;;5014954;28;20033;-77
2024/01/16 09:30:05;;;;;;;3.17;1.60;;;;;;;;;;4997751;28;20030;-76
2024/01/16 09:32:30;;;;;;;5.47;1.58;;;;;;;;;;5015374;28;20623;-78
2024/01/16 09:34:58;;;;;;;9.73;1.47;;;;;;;;;;4998826;28;20037;-78
2024/01/16 09:37:23;;;;;;;5.10;1.52;;;;;;;;;;5014797;28;20694;-78
2024/01/16 09:39:50;;;;;;;2.55;1.27;;;;;;;;;;5013475;28;20057;-77
2024/01/16 09:42:16;;;;;;;4.13;1.50;;;;;;;;;;5012700;28;20018;-77
2024/01/16 09:44:42;;;;;;;2.72;1.23;;;;;;;;;;5013508;28;20125;-77
2024/01/16 09:47:11;;;;;;;2.60;1.52;;;;;;;;;;5014023;28;20030;-76
2024/01/16 09:49:36;;;;;;;4.00;1.13;;;;;;;;;;4996287;28;20072;-77
2024/01/16 09:52:01;;;;;;;5.32;1.40;;;;;;;;;;5013932;28;20465;-77
2024/01/16 09:54:27;;;;;;;5.07;1.30;;;;;;;;;;5014829;28;20063;-78
2024/01/16 09:56:57;;;;;;;6.82;1.70;;;;;;;;;;5017255;28;20106;-77
2024/01/16 09:59:24;;;;;;;3.17;1.38;;;;;;;;;;5018962;28;20028;-78
2024/01/16 10:01:51;;;;;;;4.03;1.58;;;;;;;;;;5020222;28;20029;-77
2024/01/16 10:04:17;;;;;;;1.88;1.23;;;;;;;;;;5024703;28;20096;-79
2024/01/16 10:06:46;;;;;;;4.05;1.33;;;;;;;;;;5020406;28;20052;-78
2024/01/16 10:09:12;;;;;;;3.00;1.40;;;;;;;;;;5019111;28;20082;-77
2024/01/16 10:11:38;;;;;;;4.47;1.48;;;;;;;;;;5020690;28;20053;-78
2024/01/16 10:14:03;;;;;;;2.90;1.45;;;;;;;;;;5023330;28;20053;-78
2024/01/16 10:17:02;;;;;;;1.10;0.88;;;;;;;;;;5023240;28;20033;-79
2024/01/16 10:19:29;;;;;;;4.57;1.67;;;;;;;;;;5004093;28;20076;-79
2024/01/16 10:22:04;;;;;;;6.25;1.48;;;;;;;;;;5006724;28;20101;-77
2024/01/16 10:24:30;;;;;;;4.93;1.83;;;;;;;;;;5025346;28;20085;-78
2024/01/16 10:27:06;;;;;;;4.78;1.98;;;;;;;;;;5026788;28;20029;-79
2024/01/16 10:29:31;;;;;;;3.33;1.60;;;;;;;;;;5025836;28;20025;-79
2024/01/16 10:31:58;;;;;;;2.83;1.30;;;;;;;;;;5007848;28;20042;-77
2024/01/16 10:34:23;;;;;;;4.88;1.48;;;;;;;;;;5020784;28;20036;-77
2024/01/16 10:36:59;;;;;;;3.92;1.50;;;;;;;;;;5023858;28;20037;-78
2024/01/16 10:39:24;;;;;;;3.72;1.52;;;;;;;;;;5021218;28;20030;-77
2024/01/16 10:41:59;;;;;;;3.95;1.65;;;;;;;;;;5019888;28;20029;-78
2024/01/16 10:44:24;;;;;;;3.88;1.38;;;;;;;;;;5018829;28;20488;-76
2024/01/16 10:46:49;;;;;;;31.42;1.83;;;;;;;;;;5016262;28;20037;-75
2024/01/16 10:49:15;;;;;;;6.82;1.75;;;;;;;;;;5017801;28;20073;-82
2024/01/16 10:51:43;;;;;;;2.88;1.42;;;;;;;;;;5020092;28;20022;-77
2024/01/16 10:54:11;;;;;;;4.07;1.73;;;;;;;;;;5015991;28;20105;-76
2024/01/16 10:56:37;;;;;;;4.80;1.63;;;;;;;;;;5016051;28;20033;-74
2024/01/16 10:59:24;;;;;;;5.20;1.40;;;;;;;;;;4997041;28;20076;-74
2024/01/16 11:01:53;;;;;;;2.25;1.25;;;;;;;;;;5012279;28;20399;-74
2024/01/16 11:04:20;;;;;;;7.50;1.80;;;;;;;;;;5013989;28;20083;-73
2024/01/16 11:06:47;;;;;;;4.38;1.45;;;;;;;;;;5014418;28;20437;-73
2024/01/16 11:09:16;;;;;;;4.68;2.30;;;;;;;;;;5013185;28;20061;-73
2024/01/16 11:11:44;;;;;;;3.70;1.33;;;;;;;;;;5015100;28;20044;-73
2024/01/16 11:14:11;;;;;;;5.25;1.50;;;;;;;;;;4997343;28;20109;-73
2024/01/16 11:16:37;;;;;;;4.18;1.30;;;;;;;;;;5014906;28;20037;-72
2024/01/16 11:19:06;;;;;;;3.97;1.35;;;;;;;;;;4997310;28;20029;-73
2024/01/16 11:21:31;;;;;;;3.10;1.42;;;;;;;;;;5014622;28;20026;-74
2024/01/16 11:23:56;;;;;;;4.90;1.48;;;;;;;;;;5015030;28;20436;-73
2024/01/16 11:26:32;;;;;;;6.55;1.90;;;;;;;;;;5014977;28;20026;-72
2024/01/16 11:28:59;;;;;;;4.50;1.65;;;;;;;;;;5014721;28;20033;-72
2024/01/16 11:31:34;;;;;;;2.67;1.63;;;;;;;;;;5014860;28;20029;-73
2024/01/16 11:34:01;;;;;;;5.93;1.42;;;;;;;;;;4996977;28;20026;-74
2024/01/16 11:36:45;;;;;;;2.92;1.30;;;;;;;;;;5014497;28;20100;-73
2024/01/16 11:39:17;;;;;;;5.05;1.70;;;;;;;;;;4996730;28;20103;-72
2024/01/16 11:41:55;;;;;;;8.32;1.55;;;;;;;;;;5014685;28;20069;-72
2024/01/16 11:44:53;;;;;;;2.70;1.30;;;;;;;;;;5014351;28;20113;-73
2024/01/16 11:47:21;;;;;;;5.20;1.48;;;;;;;;;;5007406;28;20037;-73
2024/01/16 11:49:47;;;;;;;2.17;1.42;;;;;;;;;;4996734;28;20025;-73
2024/01/16 11:52:13;;;;;;;4.35;1.50;;;;;;;;;;4996987;28;20457;-72
2024/01/16 11:54:40;;;;;;;6.97;1.77;;;;;;;;;;5014491;28;20101;-73
2024/01/16 11:57:25;;;;;;;5.45;1.60;;;;;;;;;;4996623;28;20030;-73
2024/01/16 12:00:02;;;;;;;2.05;1.05;;;;;;;;;;5014506;28;20029;-74
2024/01/16 12:02:45;;;;;;;3.78;1.50;;;;;;;;;;5014093;28;20030;-73
2024/01/16 12:05:11;;;;;;;4.00;1.45;;;;;;;;;;5014455;28;20105;-73
2024/01/16 12:07:46;;;;;;;4.13;1.60;;;;;;;;;;5014503;28;20036;-74
2024/01/16 12:10:12;;;;;;;3.25;1.40;;;;;;;;;;4996316;28;20404;-74
2024/01/16 12:12:38;;;;;;;2.70;1.35;;;;;;;;;;5013838;28;20104;-73
2024/01/16 12:15:04;;;;;;;4.93;1.42;;;;;;;;;;5013754;28;20032;-73
2024/01/16 12:17:29;;;;;;;3.17;1.60;;;;;;;;;;5013833;28;20108;-73
2024/01/16 12:19:54;;;;;;;3.72;1.35;;;;;;;;;;5013617;28;20068;-73
2024/01/16 12:22:22;;;;;;;3.00;1.35;;;;;;;;;;5013976;28;20022;-73
2024/01/16 12:24:48;;;;;;;6.70;1.40;;;;;;;;;;5013669;28;20018;-72
2024/01/16 12:27:13;;;;;;;4.22;1.30;;;;;;;;;;5013711;28;20033;-74
2024/01/16 12:29:41;;;;;;;2.83;0.90;;;;;;;;;;5013581;28;20026;-73
2024/01/16 12:32:10;;;;;;;3.78;1.40;;;;;;;;;;5013616;28;20105;-73
2024/01/16 12:34:45;;;;;;;4.45;1.48;;;;;;;;;;5013479;28;20393;-74
2024/01/16 12:37:11;;;;;;;4.05;1.80;;;;;;;;;;5013248;28;20032;-72
2024/01/16 12:39:36;;;;;;;2.95;1.30;;;;;;;;;;4995655;28;20030;-73
2024/01/16 12:42:02;;;;;;;4.28;1.40;;;;;;;;;;5013728;28;20366;-72
2024/01/16 12:44:28;;;;;;;4.38;1.42;;;;;;;;;;5013465;28;20500;-73
2024/01/16 12:46:55;;;;;;;2.70;1.40;;;;;;;;;;5013631;28;20036;-73
2024/01/16 12:49:22;;;;;;;3.47;1.52;;;;;;;;;;4996690;28;20079;-74
2024/01/16 12:51:47;;;;;;;3.70;1.45;;;;;;;;;;4995963;28;20018;-72
2024/01/16 12:54:14;;;;;;;4.85;1.60;;;;;;;;;;5013327;28;20036;-74
2024/01/16 12:56:40;;;;;;;5.57;1.75;;;;;;;;;;4995610;28;20113;-73
2024/01/16 12:59:12;;;;;;;5.38;1.30;;;;;;;;;;5013181;28;20049;-73
2024/01/16 13:01:41;;;;;;;2.40;1.48;;;;;;;;;;5013320;28;20382;-72
2024/01/16 13:04:07;;;;;;;3.33;1.60;;;;;;;;;;4995610;28;20025;-73
2024/01/16 13:06:33;;;;;;;1.95;1.27;;;;;;;;;;5013168;28;20503;-74
2024/01/16 13:09:09;;;;;;;3.53;1.38;;;;;;;;;;5013397;28;20077;-73
2024/01/16 13:11:54;;;;;;;2.95;1.23;;;;;;;;;;5013142;28;20075;-74
2024/01/16 13:14:22;;;;;;;4.30;1.50;;;;;;;;;;5013045;28;20037;-73
2024/01/16 13:16:55;;;;;;;9.77;1.52;;;;;;;;;;5013009;28;20030;-73
2024/01/16 13:19:20;;;;;;;6.53;1.30;;;;;;;;;;5013246;28;20030;-73
2024/01/16 13:21:46;;;;;;;4.03;1.50;;;;;;;;;;4995329;28;20180;-73
2024/01/16 13:24:12;;;;;;;4.88;1.30;;;;;;;;;;4979232;28;20033;-72
2024/01/16 13:26:38;;;;;;;3.67;1.27;;;;;;;;;;5013031;28;20029;-74
2024/01/16 13:29:03;;;;;;;3.13;1.45;;;;;;;;;;5013021;28;20400;-74
2024/01/16 13:31:29;;;;;;;2.25;1.40;;;;;;;;;;5014997;28;20025;-73
2024/01/16 13:33:56;;;;;;;3.08;1.40;;;;;;;;;;5017025;28;20399;-73
2024/01/16 13:36:22;;;;;;;14.15;4.97;;;;;;;;;;5016730;28;20104;-74
2024/01/16 13:38:48;;;;;;;8.77;3.60;;;;;;;;;;5017239;28;20076;-76
2024/01/16 13:41:14;;;;;;;5.00;2.17;;;;;;;;;;5016707;28;20022;-74
2024/01/16 13:43:39;;;;;;;5.43;2.45;;;;;;;;;;5016634;28;20092;-74
2024/01/16 13:46:04;;;;;;;27.43;7.10;;;;;;;;;;5016629;28;20029;-74
2024/01/16 13:48:30;;;;;;;26.73;8.27;;;;;;;;;;5017046;28;20301;-74
2024/01/16 13:50:55;;;;;;;14.88;5.15;;;;;;;;;;5016636;28;20032;-73
2024/01/16 13:53:20;;;;;;;7.20;2.97;;;;;;;;;;5016439;28;20025;-75
2024/01/16 13:55:45;;;;;;;7.53;2.57;;;;;;;;;;5017118;28;20033;-74
2024/01/16 13:58:11;;;;;;;5.30;1.67;;;;;;;;;;5016376;28;20274;-74
2024/01/16 14:00:36;;;;;;;2.20;1.40;;;;;;;;;;5016870;28;20022;-73
2024/01/16 14:03:03;;;;;;;2.88;1.30;;;;;;;;;;5000043;28;20294;-75
2024/01/16 14:05:28;;;;;;;5.63;1.52;;;;;;;;;;4998681;28;20404;-73
2024/01/16 14:07:54;;;;;;;4.63;1.67;;;;;;;;;;5016330;28;20030;-74
2024/01/16 14:10:21;;;;;;;4.85;1.73;;;;;;;;;;5016509;28;20100;-74
2024/01/16 14:12:48;;;;;;;3.55;1.67;;;;;;;;;;5015982;28;20129;-74
2024/01/16 14:15:16;;;;;;;4.15;1.70;;;;;;;;;;4998211;28;20053;-74
2024/01/16 14:17:46;;;;;;;7.85;1.80;;;;;;;;;;4999155;28;20026;-74
2024/01/16 14:20:15;;;;;;;4.97;1.60;;;;;;;;;;5015182;28;20076;-73
2024/01/16 14:22:41;;;;;;;4.55;1.42;;;;;;;;;;5014708;28;20065;-73
2024/01/16 14:25:11;;;;;;;3.45;1.50;;;;;;;;;;5015062;28;20090;-75
2024/01/16 14:27:43;;;;;;;3.80;1.50;;;;;;;;;;5015470;28;20053;-75
2024/01/16 14:30:13;;;;;;;1.98;1.27;;;;;;;;;;5015799;28;20076;-74
2024/01/16 14:32:45;;;;;;;3.97;1.42;;;;;;;;;;5016771;28;20022;-74
2024/01/16 14:35:12;;;;;;;4.40;1.40;;;;;;;;;;4999413;28;20129;-75
2024/01/16 14:37:38;;;;;;;4.05;1.67;;;;;;;;;;4997994;28;20553;-74
2024/01/16 14:40:20;;;;;;;2.90;1.30;;;;;;;;;;5015387;28;20117;-74